Time;durP1;ratioP1;P1;durP2;ratioP2;P2;SDS_P1;SDS_P2;PMS_P1;PMS_P2;Temp;Humidity;BMP_temperature;BMP_pressure;BME280_temperature;BME280_humidity;BME280_pressure;Samples;Min_cycle;Max_cycle;Signal;HPM_P1;HPM_P2
2022/08/14 00:00:51;;;;;;;0.70;0.70;;;;;;;23.38;41.61;101243.31;5076843;28;20036;-68
2022/08/14 00:03:24;;;;;;;0.77;0.77;;;;;;;23.38;41.12;101251.50;5076416;28;20020;-68
2022/08/14 00:05:50;;;;;;;0.70;0.70;;;;;;;23.38;41.06;101251.50;5076546;28;20016;-68
2022/08/14 00:08:15;;;;;;;0.80;0.80;;;;;;;23.38;41.18;101254.22;5076263;28;20031;-68
2022/08/14 00:10:41;;;;;;;0.50;0.50;;;;;;;23.39;41.12;101250.44;5076267;28;20048;-68
2022/08/14 00:13:07;;;;;;;0.75;0.75;;;;;;;23.39;41.31;101252.34;5076324;28;20020;-68
2022/08/14 00:15:35;;;;;;;0.80;0.80;;;;;;;23.37;41.05;101249.88;5076512;28;20031;-68
2022/08/14 00:18:00;;;;;;;0.80;0.80;;;;;;;23.38;41.00;101256.94;5076291;28;20485;-68
2022/08/14 00:20:28;;;;;;;0.70;0.70;;;;;;;23.38;41.13;101256.13;5076257;28;20040;-68
2022/08/14 00:22:54;;;;;;;0.90;0.90;;;;;;;23.38;40.83;101262.41;5076109;28;20024;-68
2022/08/14 00:25:19;;;;;;;0.70;0.70;;;;;;;23.38;40.95;101262.41;5076708;28;20031;-68
2022/08/14 00:27:45;;;;;;;0.77;0.77;;;;;;;23.38;41.02;101262.41;5075974;28;20020;-68
2022/08/14 00:30:11;;;;;;;0.80;0.80;;;;;;;23.36;40.96;101259.13;5076290;28;20051;-68
2022/08/14 00:32:36;;;;;;;0.80;0.80;;;;;;;23.37;41.05;101257.19;5075950;28;20053;-68
2022/08/14 00:35:05;;;;;;;0.80;0.80;;;;;;;23.37;40.68;101260.78;5075619;28;20070;-68
2022/08/14 00:37:31;;;;;;;0.80;0.80;;;;;;;23.36;40.89;101259.13;5058114;28;20067;-68
2022/08/14 00:39:56;;;;;;;0.70;0.70;;;;;;;23.37;40.76;101259.94;5076109;28;20029;-68
2022/08/14 00:42:22;;;;;;;1.15;0.95;;;;;;;23.35;40.62;101257.47;5075863;28;20451;-68
2022/08/14 00:44:47;;;;;;;1.02;0.85;;;;;;;23.36;40.77;101264.56;5075730;28;20032;-68
2022/08/14 00:47:14;;;;;;;0.80;0.80;;;;;;;23.36;40.52;101256.38;5076059;28;20028;-68
2022/08/14 00:49:39;;;;;;;0.70;0.70;;;;;;;23.36;40.50;101248.19;5075651;28;20017;-68
2022/08/14 00:52:05;;;;;;;0.70;0.70;;;;;;;23.37;40.41;101251.75;5075558;28;20036;-68
2022/08/14 00:54:30;;;;;;;1.00;1.00;;;;;;;23.35;40.52;101251.19;5075730;28;20024;-68
2022/08/14 00:56:56;;;;;;;0.80;0.80;;;;;;;23.37;40.67;101238.09;5057609;28;20031;-68
2022/08/14 00:59:26;;;;;;;0.70;0.70;;;;;;;23.36;40.68;101241.94;5075337;28;20091;-68
2022/08/14 01:01:53;;;;;;;1.08;0.98;;;;;;;23.33;40.33;101248.69;5075741;28;20078;-68
2022/08/14 01:04:19;;;;;;;0.70;0.70;;;;;;;23.34;40.24;101244.91;5057541;28;20030;-68
2022/08/14 01:06:44;;;;;;;0.80;0.80;;;;;;;23.36;40.44;101245.47;5075596;28;20024;-68
2022/08/14 01:09:09;;;;;;;0.85;0.85;;;;;;;23.34;40.44;101253.09;5057655;28;20029;-67
2022/08/14 01:11:35;;;;;;;0.70;0.70;;;;;;;23.35;40.15;101246.56;5057721;28;20025;-68
2022/08/14 01:14:00;;;;;;;0.80;0.80;;;;;;;23.36;40.42;101250.13;5041497;28;20032;-68
2022/08/14 01:16:26;;;;;;;0.82;0.82;;;;;;;23.35;40.31;101252.03;5049526;28;20032;-69
2022/08/14 01:21:55;;;;;;;0.98;0.90;;;;;;;23.34;40.42;101244.09;4994052;28;20493;-69
2022/08/14 01:24:21;;;;;;;0.82;0.82;;;;;;;23.34;39.98;101250.34;4994175;28;20041;-69
2022/08/14 01:26:47;;;;;;;0.80;0.80;;;;;;;23.34;40.04;101249.53;4993857;28;20034;-69
2022/08/14 01:29:13;;;;;;;0.77;0.77;;;;;;;23.34;40.00;101249.53;4993553;28;20381;-69
2022/08/14 01:32:03;;;;;;;0.90;0.80;;;;;;;23.33;40.12;101256.88;4993491;28;20500;-68
2022/08/14 01:34:25;;;;;;;0.70;0.70;;;;;;;23.34;40.01;101253.09;5012843;28;20436;-68
2022/08/14 01:36:51;;;;;;;0.80;0.80;;;;;;;23.31;40.04;101245.41;5013045;28;20033;-68
2022/08/14 01:39:17;;;;;;;0.80;0.80;;;;;;;23.33;40.12;101248.69;5012915;28;20500;-68
2022/08/14 01:41:45;;;;;;;0.88;0.88;;;;;;;23.33;39.73;101248.69;5012989;28;20056;-68
2022/08/14 01:44:14;;;;;;;0.70;0.70;;;;;;;23.32;40.01;101247.06;5012756;28;20397;-68
2022/08/14 01:46:45;;;;;;;0.73;0.70;;;;;;;23.32;39.92;101241.59;5012119;28;20500;-68
2022/08/14 01:49:14;;;;;;;0.70;0.70;;;;;;;23.31;40.00;101244.59;5012804;28;20390;-68
2022/08/14 01:51:40;;;;;;;0.80;0.80;;;;;;;23.32;39.76;101247.06;5016177;28;20381;-68
2022/08/14 01:54:08;;;;;;;0.70;0.70;;;;;;;23.31;39.65;101247.31;5054748;28;20517;-68
2022/08/14 01:56:35;;;;;;;0.73;0.73;;;;;;;23.29;39.70;101236.66;5054485;28;20040;-68
2022/08/14 01:59:00;;;;;;;0.93;0.90;;;;;;;23.32;39.62;101240.75;5036693;28;20074;-68
2022/08/14 02:01:26;;;;;;;0.80;0.80;;;;;;;23.32;39.55;101247.06;5054653;28;20020;-68
2022/08/14 02:03:52;;;;;;;1.10;0.80;;;;;;;23.31;39.35;101245.41;5054459;28;20455;-68
2022/08/14 02:06:17;;;;;;;0.73;0.73;;;;;;;23.31;39.54;101237.22;5054528;28;20071;-68
2022/08/14 02:08:43;;;;;;;0.70;0.70;;;;;;;23.32;39.48;101241.59;5054153;28;20021;-68
2022/08/14 02:11:16;;;;;;;0.73;0.73;;;;;;;23.30;39.57;101235.59;5054215;28;20025;-68
2022/08/14 02:13:42;;;;;;;0.90;0.90;;;;;;;23.31;39.32;101245.41;5054615;28;20152;-68
2022/08/14 02:16:09;;;;;;;0.70;0.70;;;;;;;23.29;39.52;101235.84;5059423;28;20047;-68
2022/08/14 02:18:34;;;;;;;0.90;0.90;;;;;;;23.30;39.33;101232.00;5074213;28;20029;-68
2022/08/14 02:21:02;;;;;;;0.70;0.70;;;;;;;23.30;39.21;101242.94;5056358;28;20475;-68
2022/08/14 02:23:28;;;;;;;1.23;0.95;;;;;;;23.29;39.38;101236.66;5074658;28;20119;-68
2022/08/14 02:25:53;;;;;;;0.90;0.90;;;;;;;23.31;39.23;101233.69;5074277;28;20470;-68
2022/08/14 02:28:19;;;;;;;0.60;0.60;;;;;;;23.31;39.23;101242.69;5073866;28;20493;-68
2022/08/14 02:30:44;;;;;;;0.70;0.70;;;;;;;23.29;39.15;101239.38;5073781;28;20025;-68
2022/08/14 02:33:10;;;;;;;0.90;0.90;;;;;;;23.31;39.13;101242.69;5055841;28;20052;-68
2022/08/14 02:35:39;;;;;;;0.70;0.70;;;;;;;23.28;38.93;101240.44;5073971;28;20027;-68
2022/08/14 02:38:04;;;;;;;0.77;0.77;;;;;;;23.29;38.96;101236.66;5056128;28;20032;-68
2022/08/14 02:40:31;;;;;;;0.77;0.77;;;;;;;23.28;38.99;101243.19;5073813;28;20086;-68
2022/08/14 02:42:57;;;;;;;0.82;0.82;;;;;;;23.28;38.88;101245.09;5073482;28;20044;-68
2022/08/14 02:45:23;;;;;;;0.80;0.80;;;;;;;23.29;38.89;101255.75;5073849;28;20074;-68
2022/08/14 02:47:49;;;;;;;0.65;0.65;;;;;;;23.29;38.80;101247.56;5073447;28;20021;-68
2022/08/14 02:50:15;;;;;;;0.73;0.73;;;;;;;23.28;38.72;101256.81;5073760;28;20425;-68
2022/08/14 02:52:41;;;;;;;0.77;0.77;;;;;;;23.28;38.50;101254.09;5073662;28;20024;-68
2022/08/14 02:55:06;;;;;;;0.80;0.80;;;;;;;23.28;38.58;101259.53;5073449;28;20035;-68
2022/08/14 02:57:32;;;;;;;0.80;0.80;;;;;;;23.27;38.66;101252.44;5073226;28;20075;-68
2022/08/14 02:59:57;;;;;;;0.80;0.80;;;;;;;23.26;38.61;101253.50;5055461;28;20021;-68
2022/08/14 03:02:23;;;;;;;0.70;0.70;;;;;;;23.28;38.58;101266.91;5039127;28;20032;-68
2022/08/14 03:04:48;;;;;;;0.80;0.80;;;;;;;23.26;38.45;101253.50;5073266;28;20078;-68
2022/08/14 03:07:15;;;;;;;0.70;0.70;;;;;;;23.27;38.33;101254.34;5073216;28;20055;-68
2022/08/14 03:09:41;;;;;;;0.70;0.70;;;;;;;23.27;38.79;101260.63;5073609;28;20387;-68
2022/08/14 03:12:07;;;;;;;0.70;0.70;;;;;;;23.27;38.46;101260.63;5073127;28;20044;-68
2022/08/14 03:14:38;;;;;;;0.60;0.60;;;;;;;23.26;38.40;101256.25;5073395;28;20028;-68
2022/08/14 03:17:05;;;;;;;0.80;0.80;;;;;;;23.28;38.38;101258.72;5061586;28;20108;-68
2022/08/14 03:19:30;;;;;;;0.90;0.90;;;;;;;23.27;38.71;101251.59;5053425;28;20021;-68
2022/08/14 03:21:56;;;;;;;0.75;0.75;;;;;;;23.27;38.61;101255.19;5053855;28;20040;-68
2022/08/14 03:24:23;;;;;;;0.90;0.90;;;;;;;23.27;38.79;101257.91;5053247;28;20455;-68
2022/08/14 03:26:48;;;;;;;0.77;0.77;;;;;;;23.27;38.54;101255.19;5053072;28;20024;-68
2022/08/14 03:29:15;;;;;;;0.93;0.88;;;;;;;23.26;38.82;101253.50;5053420;28;20029;-68
2022/08/14 03:31:41;;;;;;;0.70;0.70;;;;;;;23.27;38.84;101249.72;5053480;28;20029;-68
2022/08/14 03:34:10;;;;;;;0.90;0.90;;;;;;;23.27;38.76;101247.00;5071916;28;20045;-67
2022/08/14 03:36:37;;;;;;;0.60;0.60;;;;;;;23.26;38.79;101253.50;5073015;28;20502;-67
2022/08/14 03:39:04;;;;;;;0.70;0.70;;;;;;;23.26;39.05;101258.97;5073049;28;20543;-67
2022/08/14 03:41:30;;;;;;;0.70;0.70;;;;;;;23.25;38.89;101255.44;5073352;28;20051;-67
2022/08/14 03:43:57;;;;;;;0.80;0.80;;;;;;;23.27;39.08;101254.34;5072958;28;20450;-68
2022/08/14 03:46:26;;;;;;;0.80;0.80;;;;;;;23.27;38.90;101257.06;5073138;28;20023;-68
2022/08/14 03:48:53;;;;;;;0.80;0.80;;;;;;;23.27;38.94;101254.34;5073304;28;20033;-67
2022/08/14 03:51:18;;;;;;;1.02;0.98;;;;;;;23.27;39.21;101254.34;5072889;28;20033;-68
2022/08/14 03:53:44;;;;;;;0.73;0.73;;;;;;;23.26;39.22;101250.78;5072726;28;20075;-68
2022/08/14 03:56:13;;;;;;;0.80;0.80;;;;;;;23.27;39.08;101248.88;5073158;28;20025;-68
2022/08/14 03:58:49;;;;;;;0.85;0.85;;;;;;;23.27;39.34;101249.72;5072793;28;20032;-68
2022/08/14 04:01:22;;;;;;;1.02;0.80;;;;;;;23.26;39.38;101256.25;5072763;28;20024;-68
2022/08/14 04:03:48;;;;;;;0.65;0.65;;;;;;;23.27;39.32;101246.16;5072901;28;20024;-67
2022/08/14 04:06:13;;;;;;;0.90;0.90;;;;;;;23.26;39.77;101245.34;5072623;28;20107;-68
2022/08/14 04:08:39;;;;;;;0.80;0.80;;;;;;;23.27;39.43;101246.16;5074267;28;20056;-67
2022/08/14 04:11:05;;;;;;;0.90;0.90;;;;;;;23.26;39.53;101250.78;5076708;28;20081;-67
2022/08/14 04:13:31;;;;;;;0.80;0.80;;;;;;;23.26;39.67;101239.88;5077390;28;20103;-67
2022/08/14 04:15:56;;;;;;;0.85;0.85;;;;;;;23.26;40.05;101248.06;5076509;28;20032;-67
2022/08/14 04:18:22;;;;;;;0.80;0.80;;;;;;;23.27;40.03;101243.41;5076569;28;20028;-67
2022/08/14 04:20:48;;;;;;;0.80;0.80;;;;;;;23.27;40.12;101247.00;5076150;28;20025;-67
2022/08/14 04:23:15;;;;;;;0.80;0.80;;;;;;;23.25;40.22;101246.44;5076007;28;20485;-67
2022/08/14 04:25:41;;;;;;;0.90;0.90;;;;;;;23.26;40.64;101248.06;5076487;28;20023;-67
2022/08/14 04:28:06;;;;;;;0.90;0.90;;;;;;;23.26;40.60;101253.50;5076413;28;20374;-68
2022/08/14 04:30:32;;;;;;;0.98;0.98;;;;;;;23.27;40.75;101251.59;5076265;28;20370;-68
2022/08/14 04:32:57;;;;;;;1.00;0.93;;;;;;;23.26;40.90;101242.59;5066462;28;20352;-68
2022/08/14 04:35:23;;;;;;;0.90;0.90;;;;;;;23.26;40.95;101248.06;5055895;28;20104;-68
2022/08/14 04:43:35;;;;;;;0.80;0.80;;;;;;;23.28;41.13;101245.09;5055848;28;20094;-68
2022/08/14 04:46:01;;;;;;;1.13;1.05;;;;;;;23.27;41.30;101244.28;5055721;28;20471;-68
2022/08/14 04:48:27;;;;;;;0.95;0.90;;;;;;;23.27;41.37;101241.53;5038410;28;20039;-68
2022/08/14 04:50:54;;;;;;;0.80;0.80;;;;;;;23.26;41.39;101242.59;5055940;28;20441;-68
2022/08/14 04:53:22;;;;;;;0.88;0.88;;;;;;;23.26;41.67;101242.59;5055952;28;20132;-68
2022/08/14 04:55:48;;;;;;;1.00;1.00;;;;;;;23.27;41.55;101246.16;5055533;28;20490;-68
2022/08/14 04:58:15;;;;;;;0.80;0.80;;;;;;;23.27;41.72;101243.41;5055460;28;20021;-68
2022/08/14 05:00:41;;;;;;;1.10;1.00;;;;;;;23.27;41.73;101243.41;5055517;28;20031;-68
2022/08/14 05:03:06;;;;;;;0.90;0.90;;;;;;;23.26;41.95;101239.88;5055362;28;20025;-68
2022/08/14 05:05:32;;;;;;;1.13;0.80;;;;;;;23.26;41.92;101248.06;5055454;28;20032;-68
2022/08/14 05:08:10;;;;;;;1.00;1.00;;;;;;;23.26;42.21;101239.88;5055354;28;20033;-68
2022/08/14 05:10:51;;;;;;;0.90;0.90;;;;;;;23.26;41.81;101239.88;5055522;28;20029;-67
2022/08/14 05:13:20;;;;;;;1.00;1.00;;;;;;;23.27;41.94;101241.53;5055605;28;20021;-67
2022/08/14 05:15:45;;;;;;;0.98;0.98;;;;;;;23.28;42.36;101243.19;5056066;28;20021;-67
2022/08/14 05:18:22;;;;;;;0.90;0.90;;;;;;;23.29;42.13;101242.09;5047543;28;20487;-67
2022/08/14 05:20:51;;;;;;;0.95;0.95;;;;;;;23.27;42.35;101232.50;5054269;28;20040;-67
2022/08/14 05:23:18;;;;;;;1.10;1.00;;;;;;;23.25;42.27;101239.06;5055123;28;20032;-68
2022/08/14 05:25:45;;;;;;;1.45;0.90;;;;;;;23.27;42.21;101233.38;5055471;28;20067;-68
2022/08/14 05:28:17;;;;;;;0.93;0.93;;;;;;;23.26;42.70;101234.44;5055387;28;20028;-67
2022/08/14 05:30:43;;;;;;;0.85;0.85;;;;;;;23.28;42.45;101234.19;5055982;28;20037;-67
2022/08/14 05:33:08;;;;;;;0.80;0.80;;;;;;;23.27;42.59;101232.50;5066114;28;20064;-67
2022/08/14 05:35:34;;;;;;;0.90;0.90;;;;;;;23.26;42.60;101226.25;5074792;28;20051;-68
2022/08/14 05:38:00;;;;;;;0.93;0.93;;;;;;;23.28;42.77;101229.53;5074912;28;20027;-67
2022/08/14 05:40:25;;;;;;;0.73;0.73;;;;;;;23.22;42.93;101225.94;5076662;28;20029;-67
2022/08/14 05:42:51;;;;;;;0.80;0.80;;;;;;;23.24;43.14;101233.84;5082738;28;20028;-68
2022/08/14 05:45:18;;;;;;;0.85;0.85;;;;;;;23.26;43.05;101228.97;5049318;28;20044;-67
2022/08/14 05:47:44;;;;;;;0.85;0.85;;;;;;;23.26;42.98;101226.25;5084753;28;20024;-68
2022/08/14 05:50:12;;;;;;;1.17;1.10;;;;;;;23.24;43.06;101226.50;5084250;28;20471;-68
2022/08/14 05:52:37;;;;;;;0.75;0.75;;;;;;;23.24;43.12;101228.41;5084560;28;20033;-68
2022/08/14 05:55:04;;;;;;;0.95;0.93;;;;;;;23.25;43.39;101230.06;5083444;28;20036;-68
2022/08/14 05:57:29;;;;;;;0.80;0.80;;;;;;;23.26;43.43;101220.78;5075922;28;20021;-68
2022/08/14 05:59:55;;;;;;;0.80;0.80;;;;;;;23.27;43.52;101233.38;5075337;28;20374;-68
2022/08/14 06:02:20;;;;;;;0.82;0.82;;;;;;;23.28;43.39;101237.72;5074599;28;20085;-68
2022/08/14 06:04:47;;;;;;;0.90;0.90;;;;;;;23.27;43.54;101232.50;5074465;28;20035;-68
2022/08/14 06:07:13;;;;;;;0.82;0.82;;;;;;;23.26;43.49;101239.88;5074271;28;20543;-68
2022/08/14 06:09:38;;;;;;;1.40;1.00;;;;;;;23.25;43.83;101232.78;5074475;28;20020;-68
2022/08/14 06:12:04;;;;;;;0.73;0.73;;;;;;;23.27;43.57;101221.59;5074476;28;20028;-68
2022/08/14 06:14:30;;;;;;;0.90;0.90;;;;;;;23.29;43.58;101233.94;5075086;28;20098;-68
2022/08/14 06:16:55;;;;;;;0.70;0.70;;;;;;;23.29;43.81;101223.03;5074002;28;20355;-68
2022/08/14 06:19:20;;;;;;;0.95;0.95;;;;;;;23.33;43.71;101229.59;5073953;28;20031;-68
2022/08/14 06:21:46;;;;;;;0.90;0.90;;;;;;;23.33;43.72;101218.69;5074255;28;20028;-69
2022/08/14 06:24:11;;;;;;;0.90;0.80;;;;;;;23.34;43.71;101228.53;5074129;28;20025;-68
2022/08/14 06:26:37;;;;;;;0.80;0.80;;;;;;;23.34;43.87;101228.53;5073897;28;20071;-69
2022/08/14 06:29:02;;;;;;;1.10;1.00;;;;;;;23.34;43.85;101225.00;5073785;28;20032;-68
2022/08/14 06:31:28;;;;;;;1.02;1.00;;;;;;;23.35;43.78;101226.63;5073554;28;20082;-68
2022/08/14 06:33:53;;;;;;;0.90;0.90;;;;;;;23.36;44.39;101218.19;5073895;28;20067;-69
2022/08/14 06:36:19;;;;;;;1.00;1.00;;;;;;;23.36;44.19;101220.94;5073859;28;20055;-68
2022/08/14 06:38:45;;;;;;;0.98;0.98;;;;;;;23.37;43.93;101228.03;5073917;28;20474;-68
2022/08/14 06:41:10;;;;;;;0.80;0.80;;;;;;;23.37;44.23;101225.31;5073790;28;20028;-68
2022/08/14 06:43:35;;;;;;;1.13;1.02;;;;;;;23.38;44.45;101226.94;5073856;28;20404;-68
2022/08/14 06:46:02;;;;;;;0.95;0.95;;;;;;;23.38;44.50;101221.50;5073742;28;20525;-68
2022/08/14 06:48:28;;;;;;;1.30;1.20;;;;;;;23.39;44.13;101225.88;5056253;28;20028;-68
2022/08/14 06:50:54;;;;;;;1.05;1.00;;;;;;;23.40;44.30;101223.97;5073564;28;20035;-68
2022/08/14 06:53:20;;;;;;;0.80;0.80;;;;;;;23.40;44.45;101222.09;5074213;28;20155;-68
2022/08/14 06:55:46;;;;;;;0.90;0.90;;;;;;;23.41;44.35;101226.44;5075587;28;20025;-68
2022/08/14 06:58:15;;;;;;;1.30;1.20;;;;;;;23.40;43.81;101216.63;5076318;28;20085;-68
2022/08/14 07:05:44;;;;;;;1.20;1.10;;;;;;;23.42;44.27;101219.06;5076583;28;20024;-67
2022/08/14 07:06:12;;;;;;;0.90;0.90;;;;;;;23.43;44.13;101221.56;5075998;28;20027;-67
2022/08/14 07:08:38;;;;;;;1.00;1.00;;;;;;;23.43;44.62;101221.56;5076063;28;20021;-68
2022/08/14 07:11:03;;;;;;;1.20;1.10;;;;;;;23.44;44.55;101220.50;5074459;28;20043;-67
2022/08/14 07:13:29;;;;;;;0.98;0.93;;;;;;;23.46;44.72;101222.13;5073620;28;20059;-68
2022/08/14 07:15:55;;;;;;;0.98;0.98;;;;;;;23.46;44.51;101224.84;5073272;28;20494;-68
2022/08/14 07:18:23;;;;;;;1.00;1.00;;;;;;;23.44;44.99;101222.41;5066573;28;20024;-67
2022/08/14 07:20:49;;;;;;;1.15;1.02;;;;;;;23.46;44.83;101227.56;5073218;28;20059;-68
2022/08/14 07:23:14;;;;;;;1.20;1.10;;;;;;;23.46;44.81;101219.41;5072990;28;20021;-68
2022/08/14 07:25:40;;;;;;;0.98;0.98;;;;;;;23.45;44.55;101221.31;5073282;28;20138;-68
2022/08/14 07:28:09;;;;;;;1.20;1.10;;;;;;;23.46;44.40;101222.13;5073414;28;20021;-67
2022/08/14 07:30:34;;;;;;;1.20;1.10;;;;;;;23.47;45.12;101223.78;5073351;28;20025;-68
2022/08/14 07:33:00;;;;;;;0.80;0.80;;;;;;;23.48;44.83;101222.72;5073180;28;20395;-68
2022/08/14 07:35:26;;;;;;;1.25;1.15;;;;;;;23.49;44.97;101221.63;5073434;28;20079;-68
2022/08/14 07:37:51;;;;;;;1.33;1.23;;;;;;;23.48;45.29;101220.81;5073384;28;20418;-68
2022/08/14 07:40:17;;;;;;;1.20;1.10;;;;;;;23.50;45.08;101215.09;5073196;28;20478;-68
2022/08/14 07:42:42;;;;;;;1.20;1.10;;;;;;;23.49;45.31;101224.34;5073210;28;20470;-68
2022/08/14 07:45:08;;;;;;;0.98;0.98;;;;;;;23.48;45.23;101217.25;5076917;28;20031;-68
2022/08/14 07:47:38;;;;;;;1.20;1.10;;;;;;;23.50;45.00;101220.56;5077528;28;20107;-68
2022/08/14 07:50:07;;;;;;;1.17;1.08;;;;;;;23.48;45.56;101218.06;5077108;28;20035;-68
2022/08/14 07:52:32;;;;;;;1.10;1.00;;;;;;;23.50;45.30;101206.91;5042926;28;20478;-67
2022/08/14 07:54:58;;;;;;;1.13;1.02;;;;;;;23.48;45.69;101211.81;5042653;28;20036;-68
2022/08/14 07:57:23;;;;;;;1.25;1.10;;;;;;;23.48;45.55;101211.81;5042389;28;20024;-68
2022/08/14 07:59:48;;;;;;;1.30;1.20;;;;;;;23.50;45.52;101207.72;5077140;28;20040;-68
2022/08/14 08:02:15;;;;;;;1.15;1.05;;;;;;;23.50;45.57;101205.00;5076841;28;20090;-68
2022/08/14 08:04:44;;;;;;;1.40;1.30;;;;;;;23.48;45.40;101206.34;5076506;28;20020;-68
2022/08/14 08:07:09;;;;;;;1.17;1.08;;;;;;;23.50;45.64;101212.38;5076459;28;20021;-68
2022/08/14 08:09:35;;;;;;;1.17;1.08;;;;;;;23.49;45.32;101207.97;5058676;28;20035;-68
2022/08/14 08:12:01;;;;;;;1.02;1.02;;;;;;;23.50;45.18;101204.19;5058901;28;20027;-68
2022/08/14 08:14:27;;;;;;;1.05;1.05;;;;;;;23.50;45.20;101205.00;5076739;28;20024;-68
2022/08/14 08:16:52;;;;;;;1.00;1.00;;;;;;;23.52;45.35;101212.94;5058506;28;20020;-68
2022/08/14 08:19:17;;;;;;;1.38;1.27;;;;;;;23.51;45.38;101201.22;5042193;28;20040;-68
2022/08/14 08:21:44;;;;;;;1.33;1.23;;;;;;;23.52;45.36;101202.84;5076304;28;20098;-68
2022/08/14 08:24:10;;;;;;;1.13;1.02;;;;;;;23.53;45.10;101196.31;5076181;28;20029;-68
2022/08/14 08:26:35;;;;;;;1.45;1.10;;;;;;;23.53;45.15;101209.13;5076395;28;20059;-68
2022/08/14 08:29:00;;;;;;;1.35;1.25;;;;;;;23.53;45.35;101203.69;5058363;28;20027;-68
2022/08/14 08:31:26;;;;;;;1.00;1.00;;;;;;;23.54;45.29;101202.59;5076267;28;20025;-68
2022/08/14 08:33:51;;;;;;;1.30;1.20;;;;;;;23.52;45.31;101202.84;5075878;28;20056;-68
2022/08/14 08:36:17;;;;;;;1.30;1.20;;;;;;;23.53;45.16;101201.78;5076264;28;20024;-68
2022/08/14 08:38:44;;;;;;;1.08;0.98;;;;;;;23.52;45.19;101207.47;5076316;28;20032;-68
2022/08/14 08:41:10;;;;;;;1.20;1.10;;;;;;;23.52;45.16;101202.84;5076539;28;20031;-68
2022/08/14 08:43:35;;;;;;;1.02;1.02;;;;;;;23.54;45.27;101202.59;5076123;28;20024;-67
2022/08/14 08:46:11;;;;;;;1.30;1.20;;;;;;;23.53;44.88;101201.78;5076089;28;20471;-68
2022/08/14 08:48:45;;;;;;;1.20;1.10;;;;;;;23.54;45.04;101203.44;5075900;28;20032;-68
2022/08/14 08:51:34;;;;;;;1.30;1.20;;;;;;;23.55;45.19;101201.53;5076129;28;20033;-68
2022/08/14 08:54:14;;;;;;;1.10;1.00;;;;;;;23.54;45.13;101202.59;5075541;28;20027;-68
2022/08/14 08:56:44;;;;;;;1.30;1.20;;;;;;;23.53;45.12;101199.03;5076059;28;20027;-68
2022/08/14 08:59:28;;;;;;;1.13;1.13;;;;;;;23.55;45.22;101209.72;5075848;28;20036;-68
2022/08/14 09:01:56;;;;;;;;;;;;;;;23.69;45.04;101197.31;5076294;28;20101;-68
2022/08/14 09:04:22;;;;;;;1.42;1.33;;;;;;;23.59;44.78;101194.47;5075319;28;19916;-68
2022/08/14 09:06:49;;;;;;;1.30;1.20;;;;;;;23.58;45.07;101195.56;5075788;28;20085;-68
2022/08/14 09:09:18;;;;;;;1.60;1.30;;;;;;;23.57;45.18;101200.16;5075352;28;20482;-68
2022/08/14 09:11:44;;;;;;;1.30;1.20;;;;;;;23.58;45.24;101196.38;5075516;28;20032;-68
2022/08/14 09:14:10;;;;;;;0.98;0.98;;;;;;;23.58;45.19;101187.38;5075576;28;20033;-68
2022/08/14 09:16:35;;;;;;;1.50;1.40;;;;;;;23.58;45.20;101190.09;5075116;28;20348;-68
2022/08/14 09:19:01;;;;;;;1.15;1.10;;;;;;;23.58;45.53;101196.38;5057482;28;20021;-68
2022/08/14 09:21:26;;;;;;;1.50;1.40;;;;;;;23.58;45.59;101187.38;5075086;28;20374;-68
2022/08/14 09:23:53;;;;;;;1.30;1.20;;;;;;;23.55;45.36;101185.97;5075094;28;20017;-68
2022/08/14 09:26:18;;;;;;;1.52;1.42;;;;;;;23.60;45.23;101182.47;5075226;28;20439;-68
2022/08/14 09:28:44;;;;;;;1.40;1.30;;;;;;;23.58;45.44;101173.75;5074919;28;20095;-68
2022/08/14 09:31:09;;;;;;;1.52;1.42;;;;;;;23.60;45.45;101179.75;5057109;28;20025;-68
2022/08/14 09:33:43;;;;;;;1.30;1.20;;;;;;;23.61;45.22;101175.94;5074786;28;20166;-68
2022/08/14 09:36:41;;;;;;;1.67;1.42;;;;;;;23.61;45.77;101176.78;5075695;28;20024;-68
2022/08/14 09:39:15;;;;;;;1.50;1.40;;;;;;;23.61;45.28;101167.75;4977910;28;20429;-68
2022/08/14 09:41:59;;;;;;;1.27;1.17;;;;;;;23.61;45.46;101174.03;4962360;28;20113;-68
2022/08/14 09:44:50;;;;;;;2.50;1.25;;;;;;;23.59;45.72;101172.63;4993294;28;20030;-68
2022/08/14 09:47:15;;;;;;;1.45;1.35;;;;;;;23.59;45.20;101180.81;4971274;28;20042;-68
2022/08/14 09:49:42;;;;;;;1.40;1.30;;;;;;;23.59;45.61;101175.38;4977468;28;20120;-68
2022/08/14 09:52:14;;;;;;;1.50;1.40;;;;;;;23.59;45.60;101164.44;4993444;28;20031;-68
2022/08/14 09:54:41;;;;;;;1.48;1.38;;;;;;;23.63;45.99;101163.69;4993259;28;20038;-68
2022/08/14 09:57:09;;;;;;;1.35;1.25;;;;;;;23.66;45.81;101165.06;4993353;28;20056;-68
2022/08/14 09:59:44;;;;;;;1.52;1.42;;;;;;;23.65;45.58;101163.44;4993258;28;20035;-68
2022/08/14 10:02:26;;;;;;;1.45;1.35;;;;;;;23.66;45.63;101164.25;4993000;28;20096;-68
2022/08/14 10:05:29;;;;;;;1.50;1.40;;;;;;;23.70;45.88;101163.50;4992978;28;20517;-68
2022/08/14 10:07:54;;;;;;;1.30;1.20;;;;;;;23.68;45.41;101159.34;4992624;28;20042;-68
2022/08/14 10:10:37;;;;;;;1.50;1.40;;;;;;;23.65;45.63;101155.25;4992856;28;20413;-68
2022/08/14 10:13:06;;;;;;;1.30;1.20;;;;;;;23.67;45.52;101155.81;4992645;28;20157;-68
2022/08/14 10:15:37;;;;;;;1.58;1.48;;;;;;;23.68;45.40;101162.09;5036290;28;20059;-68
2022/08/14 10:18:08;;;;;;;1.67;1.58;;;;;;;23.69;45.61;101156.38;5056895;28;20027;-68
2022/08/14 10:20:35;;;;;;;1.60;1.50;;;;;;;23.69;45.58;101148.19;5074229;28;20024;-68
2022/08/14 10:23:12;;;;;;;1.75;1.30;;;;;;;23.70;45.43;101155.31;5074189;28;20024;-68
2022/08/14 10:25:43;;;;;;;1.70;1.60;;;;;;;23.69;45.39;101147.38;5073957;28;20522;-68
2022/08/14 10:28:14;;;;;;;1.40;1.30;;;;;;;23.71;45.51;101154.22;5074180;28;20121;-68
2022/08/14 10:30:39;;;;;;;1.60;1.50;;;;;;;23.71;45.39;101146.03;5074082;28;20033;-68
2022/08/14 10:33:05;;;;;;;1.50;1.40;;;;;;;23.73;45.50;101149.34;5073780;28;20519;-68
2022/08/14 10:35:39;;;;;;;1.40;1.30;;;;;;;23.73;45.41;101145.78;5074036;28;20463;-68
2022/08/14 10:38:04;;;;;;;1.50;1.40;;;;;;;23.74;45.42;101152.88;5073512;28;20024;-68
2022/08/14 10:40:30;;;;;;;1.50;1.40;;;;;;;23.74;45.17;101142.78;5073639;28;20016;-68
2022/08/14 10:42:56;;;;;;;1.50;1.40;;;;;;;23.75;45.05;101139.00;5073500;28;20016;-68
2022/08/14 10:45:23;;;;;;;1.70;1.60;;;;;;;23.73;45.31;101134.84;5073642;28;20033;-68
2022/08/14 10:47:49;;;;;;;1.40;1.30;;;;;;;23.73;45.18;101137.59;5073734;28;20099;-68
2022/08/14 10:50:15;;;;;;;1.40;1.30;;;;;;;23.73;45.14;101132.97;5073824;28;20028;-68
2022/08/14 10:52:41;;;;;;;1.48;1.38;;;;;;;23.73;45.29;101132.97;5073488;28;20048;-68
2022/08/14 10:55:07;;;;;;;2.80;1.40;;;;;;;23.73;45.04;101132.97;5073676;28;20106;-68
2022/08/14 10:57:34;;;;;;;1.65;1.55;;;;;;;23.75;45.12;101129.97;5073682;28;20104;-68
2022/08/14 11:00:00;;;;;;;1.58;1.48;;;;;;;23.75;45.09;101132.69;5073652;28;20024;-68
2022/08/14 11:02:35;;;;;;;1.40;1.30;;;;;;;23.74;44.55;101134.59;5073248;28;20032;-68
2022/08/14 11:05:12;;;;;;;1.63;1.52;;;;;;;23.75;44.93;101132.69;5055556;28;20047;-68
2022/08/14 11:07:54;;;;;;;2.30;1.60;;;;;;;23.75;44.57;101135.41;5073670;28;20032;-68
2022/08/14 11:10:20;;;;;;;1.40;1.30;;;;;;;23.76;44.49;101135.16;5057753;28;20033;-68
2022/08/14 11:12:47;;;;;;;1.35;1.25;;;;;;;23.75;44.64;101130.81;5074177;28;20453;-67
2022/08/14 11:15:17;;;;;;;1.50;1.40;;;;;;;23.73;44.45;101135.69;5074017;28;20029;-68
2022/08/14 11:17:45;;;;;;;1.52;1.42;;;;;;;23.76;44.25;101128.88;5072809;28;20108;-68
2022/08/14 11:20:10;;;;;;;1.40;1.30;;;;;;;23.75;44.02;101135.41;5074153;28;20102;-68
2022/08/14 11:22:38;;;;;;;1.60;1.50;;;;;;;23.75;44.30;101129.97;5074295;28;20032;-68
2022/08/14 11:25:05;;;;;;;1.30;1.20;;;;;;;23.73;44.02;101132.97;5074200;28;20021;-68
2022/08/14 11:27:31;;;;;;;1.40;1.30;;;;;;;23.74;43.70;101120.97;5074161;28;20028;-68
2022/08/14 11:30:02;;;;;;;1.52;1.42;;;;;;;23.72;43.90;101120.41;5073568;28;20027;-68
2022/08/14 11:32:29;;;;;;;1.35;1.25;;;;;;;23.76;43.67;101126.97;5073313;28;20490;-68
2022/08/14 11:35:04;;;;;;;1.42;1.33;;;;;;;23.74;43.25;101126.41;5073159;28;20025;-68
2022/08/14 11:37:32;;;;;;;1.30;1.20;;;;;;;23.74;43.77;101122.88;5056627;28;20534;-68